Time;durP1;ratioP1;P1;durP2;ratioP2;P2;SDS_P1;SDS_P2;PMS_P1;PMS_P2;Temp;Humidity;BMP_temperature;BMP_pressure;BME280_temperature;BME280_humidity;BME280_pressure;Samples;Min_cycle;Max_cycle;Signal;HPM_P1;HPM_P2
2022/06/19 00:01:37;;;;;;;0.00;0.00;;;23.10;1.00;;;;;;5024804;28;20245;-67
2022/06/19 00:04:08;;;;;;;0.00;0.00;;;23.10;1.00;;;;;;5023518;28;20218;-67
2022/06/19 00:06:37;;;;;;;0.00;0.00;;;23.00;1.00;;;;;;5023928;28;20239;-67
2022/06/19 00:09:07;;;;;;;0.00;0.00;;;23.00;1.00;;;;;;5024695;28;20210;-68
2022/06/19 00:11:39;;;;;;;0.00;0.00;;;22.90;1.00;;;;;;5025386;28;20207;-67
2022/06/19 00:14:10;;;;;;;0.00;0.00;;;22.80;1.00;;;;;;5024654;28;20198;-67
2022/06/19 00:16:38;;;;;;;0.00;0.00;;;22.80;1.00;;;;;;5025239;28;20314;-67
2022/06/19 00:19:09;;;;;;;0.00;0.00;;;22.80;1.00;;;;;;5023227;28;20563;-68
2022/06/19 00:21:37;;;;;;;0.00;0.00;;;22.70;1.00;;;;;;5024594;28;20207;-68
2022/06/19 00:24:06;;;;;;;0.00;0.00;;;22.60;64.90;;;;;;5023208;28;20196;-68
2022/06/19 00:26:34;;;;;;;0.00;0.00;;;22.40;99.90;;;;;;5025418;28;20227;-68
2022/06/19 00:29:03;;;;;;;0.00;0.00;;;22.40;99.90;;;;;;5027261;28;20210;-68
2022/06/19 00:31:35;;;;;;;0.00;0.00;;;22.30;1.00;;;;;;5029830;28;20634;-68
2022/06/19 00:34:03;;;;;;;0.00;0.00;;;22.30;1.00;;;;;;5025263;28;20290;-68
2022/06/19 00:36:33;;;;;;;0.00;0.00;;;22.40;1.00;;;;;;5032117;28;20246;-69
2022/06/19 00:39:01;;;;;;;0.00;0.00;;;22.30;1.00;;;;;;5045420;28;20191;-69
2022/06/19 00:41:34;;;;;;;0.00;0.00;;;22.20;1.00;;;;;;5034788;28;20206;-68
2022/06/19 00:44:04;;;;;;;0.00;0.00;;;22.10;1.00;;;;;;5035440;28;20282;-68
2022/06/19 00:46:42;;;;;;;0.00;0.00;;;22.30;1.00;;;;;;5026801;28;20218;-67
2022/06/19 00:49:12;;;;;;;0.00;0.00;;;22.10;1.00;;;;;;5034305;28;20206;-67
2022/06/19 00:51:42;;;;;;;0.00;0.00;;;22.20;1.00;;;;;;5034818;28;20645;-67
2022/06/19 00:54:13;;;;;;;0.00;0.00;;;22.20;1.00;;;;;;5024341;28;20266;-67
2022/06/19 00:56:42;;;;;;;0.00;0.00;;;22.20;1.00;;;;;;5051693;22;20236;-71
2022/06/19 00:59:12;;;;;;;0.00;0.00;;;22.30;1.00;;;;;;5043518;28;20207;-68
2022/06/19 01:01:41;;;;;;;0.00;0.00;;;22.50;99.90;;;;;;5046120;28;20673;-68
2022/06/19 01:04:17;;;;;;;0.00;0.00;;;22.60;1.00;;;;;;5046747;28;20210;-68
2022/06/19 01:06:48;;;;;;;0.00;0.00;;;22.60;1.00;;;;;;5047216;28;20206;-68
2022/06/19 01:09:16;;;;;;;0.00;0.00;;;22.70;1.00;;;;;;5045038;28;20661;-69
2022/06/19 01:11:45;;;;;;;0.00;0.00;;;22.70;1.00;;;;;;5045870;28;20221;-69
2022/06/19 01:14:18;;;;;;;0.00;0.00;;;22.80;1.00;;;;;;5045376;28;20202;-69
2022/06/19 01:16:46;;;;;;;0.00;0.00;;;22.90;1.00;;;;;;5046519;28;20205;-69
2022/06/19 01:19:22;;;;;;;0.00;0.00;;;22.90;1.00;;;;;;5045982;28;20195;-69
2022/06/19 01:21:58;;;;;;;0.00;0.00;;;22.90;1.00;;;;;;5046732;28;20703;-69
2022/06/19 01:24:36;;;;;;;0.00;0.00;;;22.70;1.00;;;;;;5044987;28;20190;-69
2022/06/19 01:27:07;;;;;;;0.00;0.00;;;22.60;1.00;;;;;;5045887;28;20218;-69
2022/06/19 01:29:35;;;;;;;0.00;0.00;;;22.50;1.00;;;;;;5044481;28;20308;-68
2022/06/19 01:32:07;;;;;;;0.00;0.00;;;22.40;1.00;;;;;;5045315;28;20210;-69
2022/06/19 01:34:39;;;;;;;0.00;0.00;;;22.40;1.00;;;;;;5048623;28;20287;-69
2022/06/19 01:37:15;;;;;;;0.00;0.00;;;22.40;88.90;;;;;;5041738;28;20229;-70
2022/06/19 01:39:46;;;;;;;0.00;0.00;;;22.20;99.90;;;;;;5045616;28;20288;-70
2022/06/19 01:42:16;;;;;;;0.00;0.00;;;22.20;99.90;;;;;;5045273;28;20261;-70
2022/06/19 01:44:46;;;;;;;0.00;0.00;;;22.00;1.00;;;;;;5044966;28;20212;-69
2022/06/19 01:47:15;;;;;;;0.00;0.00;;;22.10;1.00;;;;;;5044103;28;20214;-69
2022/06/19 01:49:49;;;;;;;0.00;0.00;;;22.20;99.90;;;;;;5045203;28;20202;-76
2022/06/19 01:52:19;;;;;;;0.00;0.00;;;22.20;1.00;;;;;;5044794;28;20203;-76
2022/06/19 01:54:53;;;;;;;0.00;0.00;;;22.10;1.00;;;;;;5044274;28;20203;-76
2022/06/19 01:57:24;;;;;;;0.00;0.00;;;22.10;1.00;;;;;;5056050;28;20226;-76
2022/06/19 01:59:52;;;;;;;0.00;0.00;;;21.90;1.00;;;;;;5051637;28;20199;-75
2022/06/19 02:02:23;;;;;;;0.00;0.00;;;21.80;1.00;;;;;;5054853;28;20190;-75
2022/06/19 02:04:52;;;;;;;0.00;0.00;;;21.80;1.00;;;;;;5052885;28;20194;-73
2022/06/19 02:07:23;;;;;;;0.00;0.00;;;21.80;1.00;;;;;;5053908;28;20229;-73
2022/06/19 02:09:51;;;;;;;0.00;0.00;;;21.80;1.00;;;;;;5054442;28;20735;-73
2022/06/19 02:12:22;;;;;;;0.00;0.00;;;21.80;39.30;;;;;;5066088;28;20268;-72
2022/06/19 02:14:50;;;;;;;0.00;0.00;;;21.70;99.90;;;;;;5046010;28;20620;-72
2022/06/19 02:17:22;;;;;;;0.00;0.00;;;21.70;99.90;;;;;;5046150;28;20244;-72
2022/06/19 02:19:51;;;;;;;0.00;0.00;;;21.60;1.00;;;;;;5070197;28;20219;-73
2022/06/19 02:22:18;;;;;;;0.00;0.00;;;21.60;1.00;;;;;;5060406;28;20625;-73
2022/06/19 02:24:47;;;;;;;0.00;0.00;;;21.60;1.00;;;;;;5058426;28;20202;-72
2022/06/19 02:27:15;;;;;;;0.00;0.00;;;21.50;1.00;;;;;;5053209;28;20221;-76
2022/06/19 02:29:48;;;;;;;0.00;0.00;;;21.60;1.00;;;;;;5054773;28;20655;-76
2022/06/19 02:32:21;;;;;;;0.00;0.00;;;21.60;1.00;;;;;;5048013;28;20218;-76
2022/06/19 02:34:50;;;;;;;0.00;0.00;;;21.70;1.00;;;;;;5050174;28;20616;-77
2022/06/19 02:37:21;;;;;;;0.00;0.00;;;21.70;99.90;;;;;;5049729;28;20231;-77
2022/06/19 02:39:55;;;;;;;0.00;0.00;;;21.60;1.00;;;;;;5053692;28;20222;-77
2022/06/19 02:42:37;;;;;;;0.00;0.00;;;21.70;1.00;;;;;;5050518;28;20213;-76
2022/06/19 02:45:11;;;;;;;0.00;0.00;;;21.80;99.90;;;;;;5053671;28;20563;-76
2022/06/19 02:47:40;;;;;;;0.00;0.00;;;21.70;99.90;;;;;;5051442;28;20658;-76
2022/06/19 02:50:11;;;;;;;0.00;0.00;;;21.70;99.90;;;;;;5045080;28;20252;-74
2022/06/19 02:52:39;;;;;;;0.00;0.00;;;21.80;99.90;;;;;;5047887;28;20708;-76
2022/06/19 02:55:09;;;;;;;0.00;0.00;;;21.80;99.90;;;;;;5047261;28;20672;-76
2022/06/19 02:57:37;;;;;;;0.00;0.00;;;21.80;99.90;;;;;;5047925;28;20222;-75
2022/06/19 03:00:10;;;;;;;0.00;0.00;;;21.80;99.90;;;;;;5044118;28;20218;-76
2022/06/19 03:02:38;;;;;;;0.00;0.00;;;21.80;99.90;;;;;;5049941;28;20531;-75
2022/06/19 03:05:08;;;;;;;0.00;0.00;;;21.80;99.90;;;;;;5047314;28;20199;-75
2022/06/19 03:07:35;;;;;;;0.00;0.00;;;21.80;99.90;;;;;;5046476;28;20574;-75
2022/06/19 03:10:04;;;;;;;0.00;0.00;;;21.80;99.90;;;;;;5045274;28;20253;-75
2022/06/19 03:12:32;;;;;;;0.00;0.00;;;21.80;92.10;;;;;;5048011;28;20234;-76
2022/06/19 03:15:00;;;;;;;0.00;0.00;;;21.90;1.00;;;;;;5044835;28;20207;-75
2022/06/19 03:17:29;;;;;;;0.00;0.00;;;22.10;1.00;;;;;;5048181;28;20226;-75
2022/06/19 03:19:58;;;;;;;0.00;0.00;;;22.10;1.00;;;;;;5047549;28;20538;-74
2022/06/19 03:22:25;;;;;;;0.00;0.00;;;22.20;1.00;;;;;;5045330;28;20229;-72
2022/06/19 03:24:53;;;;;;;0.00;0.00;;;22.20;1.00;;;;;;5046641;28;20756;-73
2022/06/19 03:27:21;;;;;;;0.00;0.00;;;22.30;1.00;;;;;;5045786;28;20223;-72
2022/06/19 03:29:49;;;;;;;0.00;0.00;;;22.40;99.90;;;;;;5042557;28;20206;-71
2022/06/19 03:32:17;;;;;;;0.00;0.00;;;22.50;99.90;;;;;;5042224;28;20233;-71
2022/06/19 03:34:46;;;;;;;0.00;0.00;;;22.50;99.90;;;;;;5062253;28;20254;-70
2022/06/19 03:37:14;;;;;;;0.00;0.00;;;22.60;99.90;;;;;;5055403;28;20217;-73
2022/06/19 03:39:43;;;;;;;0.00;0.00;;;22.60;32.80;;;;;;5048690;28;20202;-72
2022/06/19 03:42:12;;;;;;;0.00;0.00;;;22.80;1.00;;;;;;5031719;28;20190;-72
2022/06/19 03:44:40;;;;;;;0.00;0.00;;;22.80;1.00;;;;;;5035199;28;20714;-72
2022/06/19 03:47:08;;;;;;;0.00;0.00;;;22.80;1.00;;;;;;5051329;28;20551;-72
2022/06/19 03:49:36;;;;;;;0.00;0.00;;;22.80;1.00;;;;;;5045886;28;20256;-72
2022/06/19 03:52:05;;;;;;;0.00;0.00;;;22.80;1.00;;;;;;5042761;28;20218;-72
2022/06/19 03:54:33;;;;;;;0.00;0.00;;;22.80;1.00;;;;;;5045394;28;20272;-73
2022/06/19 03:57:01;;;;;;;0.00;0.00;;;22.80;1.00;;;;;;5043110;28;20237;-73
2022/06/19 03:59:29;;;;;;;0.00;0.00;;;22.80;1.00;;;;;;5042430;28;20702;-73
2022/06/19 04:01:57;;;;;;;0.00;0.00;;;22.90;1.00;;;;;;5049963;28;20211;-72
2022/06/19 04:04:25;;;;;;;0.00;0.00;;;22.80;1.00;;;;;;5056863;28;20194;-73
2022/06/19 04:06:53;;;;;;;0.00;0.00;;;22.90;1.00;;;;;;5049995;28;20712;-72
2022/06/19 04:09:24;;;;;;;0.00;0.00;;;22.90;1.00;;;;;;5043950;28;20203;-73
2022/06/19 04:11:52;;;;;;;0.00;0.00;;;23.00;1.00;;;;;;5047415;28;20308;-72
2022/06/19 04:14:25;;;;;;;0.00;0.00;;;22.90;1.00;;;;;;5051046;28;20333;-72
2022/06/19 04:16:58;;;;;;;0.00;0.00;;;22.90;1.00;;;;;;5049546;28;20317;-72
2022/06/19 04:19:27;;;;;;;0.00;0.00;;;22.90;1.00;;;;;;5051185;28;20202;-72
2022/06/19 04:21:56;;;;;;;0.00;0.00;;;22.90;1.00;;;;;;5054098;28;20198;-72
2022/06/19 04:24:26;;;;;;;0.00;0.00;;;22.90;1.00;;;;;;5049159;28;20260;-73
2022/06/19 04:26:54;;;;;;;0.00;0.00;;;23.00;1.00;;;;;;5050994;28;20222;-71
2022/06/19 04:29:26;;;;;;;0.00;0.00;;;23.00;1.00;;;;;;5051266;28;20595;-72
2022/06/19 04:32:05;;;;;;;0.00;0.00;;;23.10;1.00;;;;;;5051398;28;20260;-71
2022/06/19 04:34:33;;;;;;;0.00;0.00;;;23.20;1.00;;;;;;5051812;28;20211;-72
2022/06/19 04:37:01;;;;;;;0.00;0.00;;;23.30;1.00;;;;;;5049833;28;20214;-72
2022/06/19 04:39:30;;;;;;;0.00;0.00;;;23.30;1.00;;;;;;5046077;28;20223;-72
2022/06/19 04:41:58;;;;;;;0.00;0.00;;;23.30;99.90;;;;;;5046603;28;20281;-73
2022/06/19 04:44:26;;;;;;;0.00;0.00;;;23.40;99.90;;;;;;5046433;28;20206;-72
2022/06/19 04:46:55;;;;;;;0.00;0.00;;;23.40;99.90;;;;;;5046310;28;20308;-74
2022/06/19 04:49:22;;;;;;;0.00;0.00;;;23.40;99.90;;;;;;5048280;28;20214;-72
2022/06/19 04:51:50;;;;;;;0.00;0.00;;;23.40;99.90;;;;;;5048497;28;20712;-73
2022/06/19 04:54:18;;;;;;;0.00;0.00;;;23.40;99.90;;;;;;5048407;28;20220;-72
2022/06/19 04:56:47;;;;;;;0.00;0.00;;;23.40;99.90;;;;;;5046472;28;20195;-72
2022/06/19 04:59:15;;;;;;;0.00;0.00;;;23.40;99.90;;;;;;5050704;28;20567;-72
2022/06/19 05:01:44;;;;;;;0.00;0.00;;;23.40;99.90;;;;;;5046926;28;20271;-73
2022/06/19 05:04:12;;;;;;;0.00;0.00;;;23.40;99.90;;;;;;5047967;28;20573;-73
2022/06/19 05:06:41;;;;;;;0.00;0.00;;;23.50;99.90;;;;;;5049523;28;20202;-73
2022/06/19 05:09:09;;;;;;;0.00;0.00;;;23.50;99.90;;;;;;5047352;28;20643;-72
2022/06/19 05:11:37;;;;;;;0.00;0.00;;;23.50;99.90;;;;;;5045326;28;20198;-73
2022/06/19 05:14:06;;;;;;;0.00;0.00;;;23.50;99.90;;;;;;5044000;28;20210;-72
2022/06/19 05:16:34;;;;;;;0.00;0.00;;;23.60;99.90;;;;;;5046156;28;20298;-73
2022/06/19 05:19:03;;;;;;;0.00;0.00;;;23.60;99.90;;;;;;5044473;28;20199;-73
2022/06/19 05:21:31;;;;;;;0.00;0.00;;;23.60;99.90;;;;;;5044486;28;20207;-73
2022/06/19 05:23:59;;;;;;;0.00;0.00;;;23.70;99.90;;;;;;5045088;28;20668;-73
2022/06/19 05:26:29;;;;;;;0.00;0.00;;;23.70;99.90;;;;;;5042535;28;20229;-73
2022/06/19 05:28:58;;;;;;;0.00;0.00;;;23.80;99.90;;;;;;5042997;28;20221;-72
2022/06/19 05:31:28;;;;;;;0.00;0.00;;;23.80;99.90;;;;;;5048402;28;20206;-73
2022/06/19 05:33:56;;;;;;;0.00;0.00;;;23.90;99.90;;;;;;5047276;28;20222;-71
2022/06/19 05:36:26;;;;;;;0.00;0.00;;;23.90;99.90;;;;;;5045551;28;20207;-71
2022/06/19 05:38:54;;;;;;;0.00;0.00;;;24.00;99.90;;;;;;5048960;28;20610;-71
2022/06/19 05:41:23;;;;;;;0.00;0.00;;;24.00;99.90;;;;;;5045946;28;20201;-71
2022/06/19 05:43:51;;;;;;;0.00;0.00;;;24.00;99.90;;;;;;5045555;28;20201;-71
2022/06/19 05:46:21;;;;;;;0.00;0.00;;;24.10;99.90;;;;;;5044961;28;20205;-71
2022/06/19 05:48:50;;;;;;;0.00;0.00;;;24.10;99.90;;;;;;5043810;28;20300;-72
2022/06/19 05:51:20;;;;;;;0.00;0.00;;;24.30;99.90;;;;;;5060485;28;20217;-71
2022/06/19 05:53:51;;;;;;;0.00;0.00;;;24.30;99.90;;;;;;5043683;28;20260;-71
2022/06/19 05:56:19;;;;;;;0.00;0.00;;;24.40;99.90;;;;;;5043844;28;20198;-72
2022/06/19 05:58:47;;;;;;;0.00;0.00;;;24.40;99.90;;;;;;5043051;28;20277;-71
2022/06/19 06:01:16;;;;;;;0.00;0.00;;;24.50;99.90;;;;;;5042772;28;20245;-72
2022/06/19 06:03:44;;;;;;;0.00;0.00;;;24.60;99.90;;;;;;5045376;28;20198;-72
2022/06/19 06:06:16;;;;;;;0.00;0.00;;;24.70;99.90;;;;;;5043761;28;20253;-71
2022/06/19 06:08:44;;;;;;;0.00;0.00;;;24.80;99.90;;;;;;5043006;28;20652;-73
2022/06/19 06:11:12;;;;;;;0.00;0.00;;;24.90;99.90;;;;;;5060962;28;20723;-76
2022/06/19 06:13:40;;;;;;;0.00;0.00;;;25.00;99.90;;;;;;5044112;28;20237;-76
2022/06/19 06:16:10;;;;;;;0.00;0.00;;;25.10;99.90;;;;;;5046384;28;20260;-74
2022/06/19 06:18:38;;;;;;;0.00;0.00;;;25.20;99.30;;;;;;5046651;28;20231;-69
2022/06/19 06:21:09;;;;;;;0.00;0.00;;;25.40;80.90;;;;;;5051031;28;20198;-69
2022/06/19 06:23:38;;;;;;;0.00;0.00;;;25.50;58.60;;;;;;5049062;28;20190;-69
2022/06/19 06:26:08;;;;;;;0.00;0.00;;;25.70;35.60;;;;;;5049178;28;20199;-69
2022/06/19 06:28:38;;;;;;;0.00;0.00;;;25.80;29.50;;;;;;5045351;28;20612;-71
2022/06/19 06:31:06;;;;;;;0.00;0.00;;;26.00;20.20;;;;;;5046341;28;20203;-69
2022/06/19 06:33:34;;;;;;;0.00;0.00;;;26.10;8.60;;;;;;5048816;28;20232;-68
2022/06/19 06:36:02;;;;;;;0.00;0.00;;;26.30;1.00;;;;;;5052704;28;20199;-68
2022/06/19 06:38:30;;;;;;;0.00;0.00;;;26.40;1.00;;;;;;5047198;28;20249;-70
2022/06/19 06:41:00;;;;;;;0.00;0.00;;;26.60;1.00;;;;;;5047224;28;20203;-69
2022/06/19 06:43:28;;;;;;;0.00;0.00;;;26.80;1.00;;;;;;5047175;28;20214;-69
2022/06/19 06:46:04;;;;;;;0.00;0.00;;;27.00;1.00;;;;;;5045072;28;20207;-69
2022/06/19 06:48:32;;;;;;;0.00;0.00;;;27.20;1.00;;;;;;5049165;28;20230;-68
2022/06/19 06:51:00;;;;;;;0.00;0.00;;;27.30;1.00;;;;;;5048831;28;20199;-69
2022/06/19 06:53:28;;;;;;;0.00;0.00;;;27.40;1.00;;;;;;5046828;28;20227;-68
2022/06/19 06:55:57;;;;;;;0.00;0.00;;;27.60;1.00;;;;;;5043340;28;20252;-68
2022/06/19 06:58:26;;;;;;;0.00;0.00;;;27.60;1.00;;;;;;5047295;28;20269;-69
2022/06/19 07:00:54;;;;;;;0.00;0.00;;;27.70;1.00;;;;;;5046946;28;20211;-68
2022/06/19 07:03:22;;;;;;;0.00;0.00;;;27.90;1.00;;;;;;5044476;28;20199;-69
2022/06/19 07:05:50;;;;;;;0.00;0.00;;;28.10;1.00;;;;;;5046195;28;20206;-69
2022/06/19 07:08:18;;;;;;;0.00;0.00;;;28.20;1.00;;;;;;5044157;28;20234;-70
2022/06/19 07:10:45;;;;;;;0.00;0.00;;;28.40;1.00;;;;;;5044821;28;20227;-71
2022/06/19 07:13:14;;;;;;;0.00;0.00;;;28.50;1.00;;;;;;5043135;28;20217;-69
2022/06/19 07:15:43;;;;;;;0.00;0.00;;;28.70;1.00;;;;;;5044544;28;20214;-69
2022/06/19 07:18:16;;;;;;;0.00;0.00;;;28.80;1.00;;;;;;5042675;28;20735;-68
2022/06/19 07:20:44;;;;;;;0.00;0.00;;;28.90;1.00;;;;;;5044840;28;20201;-68
2022/06/19 07:23:12;;;;;;;0.00;0.00;;;29.00;1.00;;;;;;5043640;28;20249;-68
2022/06/19 07:25:40;;;;;;;0.00;0.00;;;29.10;1.00;;;;;;5044738;28;20207;-68
2022/06/19 07:28:09;;;;;;;0.00;0.00;;;29.20;1.00;;;;;;5041972;28;20229;-68
2022/06/19 07:30:37;;;;;;;0.00;0.00;;;29.30;1.00;;;;;;5041591;28;20215;-68
2022/06/19 07:33:06;;;;;;;0.00;0.00;;;29.40;1.00;;;;;;5044911;28;20732;-68
2022/06/19 07:35:34;;;;;;;0.00;0.00;;;29.50;1.00;;;;;;5044246;28;20210;-68
2022/06/19 07:38:02;;;;;;;0.00;0.00;;;29.60;1.00;;;;;;5042821;28;20289;-68
2022/06/19 07:40:30;;;;;;;0.00;0.00;;;29.70;1.00;;;;;;5043660;28;20627;-69
2022/06/19 07:42:58;;;;;;;0.00;0.00;;;29.80;1.00;;;;;;5043276;28;20198;-68
2022/06/19 07:45:25;;;;;;;0.00;0.00;;;30.00;1.00;;;;;;5042963;28;20198;-69
2022/06/19 07:50:40;;;;;;;0.00;0.00;;;30.20;1.00;;;;;;5043075;28;20340;-68
2022/06/19 07:53:08;;;;;;;0.00;0.00;;;30.30;1.00;;;;;;5043716;28;20214;-69
2022/06/19 07:55:36;;;;;;;0.00;0.00;;;30.50;1.00;;;;;;5044323;28;20230;-68
2022/06/19 07:58:03;;;;;;;0.00;0.00;;;30.60;1.00;;;;;;5041325;28;20659;-68
2022/06/19 08:00:33;;;;;;;0.00;0.00;;;30.80;1.00;;;;;;5043485;28;20620;-68
2022/06/19 08:03:01;;;;;;;0.00;0.00;;;30.90;1.00;;;;;;5043962;28;20194;-68
2022/06/19 08:05:31;;;;;;;0.00;0.00;;;30.90;1.00;;;;;;5045643;28;20234;-68
2022/06/19 08:08:02;;;;;;;0.00;0.00;;;31.00;1.00;;;;;;5045470;28;20320;-68
2022/06/19 08:10:33;;;;;;;0.00;0.00;;;31.00;1.00;;;;;;5042417;28;20211;-68
2022/06/19 08:13:01;;;;;;;0.00;0.00;;;31.10;1.00;;;;;;5045009;28;20202;-68
2022/06/19 08:15:30;;;;;;;0.00;0.00;;;31.10;1.00;;;;;;5043664;28;20229;-69
2022/06/19 08:17:57;;;;;;;0.00;0.00;;;31.10;1.00;;;;;;5045975;28;20290;-68
2022/06/19 08:20:26;;;;;;;0.00;0.00;;;31.20;1.00;;;;;;5043802;28;20225;-68
2022/06/19 08:22:54;;;;;;;0.00;0.00;;;31.40;1.00;;;;;;5047025;28;20190;-68
2022/06/19 08:25:24;;;;;;;0.00;0.00;;;31.50;1.00;;;;;;5044357;28;20225;-68
2022/06/19 08:27:53;;;;;;;0.00;0.00;;;31.50;1.00;;;;;;5044600;28;20237;-68
2022/06/19 08:30:22;;;;;;;0.00;0.00;;;31.60;1.00;;;;;;5043912;28;20627;-68
2022/06/19 08:32:51;;;;;;;0.00;0.00;;;31.60;1.00;;;;;;5045234;28;20550;-68
2022/06/19 08:35:19;;;;;;;0.00;0.00;;;31.80;1.00;;;;;;5045112;28;20496;-70
2022/06/19 08:37:51;;;;;;;0.00;0.00;;;31.80;1.00;;;;;;5045639;28;20217;-68
2022/06/19 08:40:33;;;;;;;0.00;0.00;;;31.80;1.00;;;;;;5044280;28;20642;-68
2022/06/19 08:43:11;;;;;;;0.00;0.00;;;31.80;1.00;;;;;;5043696;28;20696;-68
2022/06/19 08:45:50;;;;;;;0.00;0.00;;;31.90;1.00;;;;;;5043736;28;20206;-68
2022/06/19 08:48:33;;;;;;;0.00;0.00;;;32.10;1.00;;;;;;5045907;28;20309;-69
2022/06/19 08:51:03;;;;;;;0.00;0.00;;;32.20;1.00;;;;;;5046334;28;20260;-68
2022/06/19 08:53:46;;;;;;;0.00;0.00;;;32.20;1.00;;;;;;5047709;28;20198;-68
2022/06/19 08:56:23;;;;;;;0.00;0.00;;;32.30;1.00;;;;;;5045336;28;20191;-69
2022/06/19 08:58:57;;;;;;;0.00;0.00;;;32.50;1.00;;;;;;5049679;28;20718;-68
2022/06/19 09:01:30;;;;;;;0.00;0.00;;;32.60;1.00;;;;;;5047307;28;20197;-68
2022/06/19 09:06:59;;;;;;;0.00;0.00;;;32.90;1.00;;;;;;5046961;28;20249;-68
2022/06/19 09:09:49;;;;;;;0.00;0.00;;;33.10;1.00;;;;;;5048474;28;20216;-69
2022/06/19 09:12:38;;;;;;;0.00;0.00;;;33.20;1.00;;;;;;5047634;28;20217;-69
2022/06/19 09:15:12;;;;;;;0.00;0.00;;;33.40;1.00;;;;;;5047051;28;20623;-69
2022/06/19 09:17:51;;;;;;;0.00;0.00;;;33.20;1.00;;;;;;5045947;28;20210;-68
2022/06/19 09:20:29;;;;;;;0.00;0.00;;;33.20;1.00;;;;;;5047393;28;20197;-69
2022/06/19 09:23:18;;;;;;;0.00;0.00;;;33.20;1.00;;;;;;5046337;28;20600;-69
2022/06/19 09:25:54;;;;;;;0.00;0.00;;;33.30;1.00;;;;;;5048074;28;20198;-69
2022/06/19 09:28:29;;;;;;;0.00;0.00;;;33.50;1.00;;;;;;5046775;28;20297;-69
2022/06/19 09:31:04;;;;;;;0.00;0.00;;;33.50;1.00;;;;;;5049315;28;20201;-68
2022/06/19 09:33:42;;;;;;;0.00;0.00;;;33.50;1.00;;;;;;5051989;28;20205;-68
2022/06/19 09:36:15;;;;;;;0.00;0.00;;;33.40;1.00;;;;;;5048148;28;20244;-69
2022/06/19 09:38:49;;;;;;;0.00;0.00;;;33.20;1.00;;;;;;5047557;28;20282;-68
2022/06/19 09:41:22;;;;;;;0.00;0.00;;;33.50;1.00;;;;;;5046053;28;20202;-69
2022/06/19 09:43:59;;;;;;;0.00;0.00;;;33.60;1.00;;;;;;5047521;28;20206;-68
2022/06/19 09:46:34;;;;;;;0.00;0.00;;;33.40;1.00;;;;;;5045517;28;20225;-68
2022/06/19 09:49:10;;;;;;;0.00;0.00;;;33.60;1.00;;;;;;5047088;28;20285;-68
2022/06/19 09:51:44;;;;;;;0.00;0.00;;;33.60;1.00;;;;;;5048497;28;20281;-68
2022/06/19 09:54:23;;;;;;;0.00;0.00;;;33.60;1.00;;;;;;5048195;28;20289;-68
2022/06/19 09:56:58;;;;;;;0.00;0.00;;;33.70;1.00;;;;;;5050008;28;20245;-69
2022/06/19 09:59:33;;;;;;;0.00;0.00;;;33.80;1.00;;;;;;5048101;28;20197;-69
2022/06/19 10:02:07;;;;;;;0.00;0.00;;;33.80;1.00;;;;;;5049639;28;20198;-70
2022/06/19 10:04:39;;;;;;;0.00;0.00;;;34.00;1.00;;;;;;5047720;28;20216;-69
2022/06/19 10:07:13;;;;;;;0.00;0.00;;;33.90;1.00;;;;;;5050390;28;20304;-69
2022/06/19 10:09:46;;;;;;;0.00;0.00;;;34.20;1.00;;;;;;5048981;28;20210;-69
2022/06/19 10:12:21;;;;;;;0.00;0.00;;;34.50;1.00;;;;;;5050052;28;20189;-69
2022/06/19 10:14:53;;;;;;;0.00;0.00;;;34.80;1.00;;;;;;5050690;28;20273;-69
2022/06/19 10:17:26;;;;;;;0.00;0.00;;;34.60;1.00;;;;;;5048512;28;20779;-70
2022/06/19 10:20:01;;;;;;;0.00;0.00;;;34.20;1.00;;;;;;5048978;28;20202;-69
2022/06/19 10:22:41;;;;;;;0.00;0.00;;;34.40;1.00;;;;;;5048410;28;20209;-70
2022/06/19 10:25:20;;;;;;;0.00;0.00;;;34.60;1.00;;;;;;5046431;28;20213;-68
2022/06/19 10:28:01;;;;;;;0.00;0.00;;;34.50;1.00;;;;;;5046396;28;20314;-69
2022/06/19 10:30:35;;;;;;;0.00;0.00;;;34.30;1.00;;;;;;5047582;28;20745;-70
2022/06/19 10:33:16;;;;;;;0.00;0.00;;;34.30;1.00;;;;;;5045113;28;20237;-69
2022/06/19 10:35:51;;;;;;;0.00;0.00;;;34.40;1.00;;;;;;5047526;28;20224;-70
2022/06/19 10:38:41;;;;;;;0.00;0.00;;;34.20;1.00;;;;;;5043921;28;20762;-69
2022/06/19 10:42:00;;;;;;;0.00;0.00;;;34.20;1.00;;;;;;5045550;28;20206;-69
2022/06/19 10:44:17;;;;;;;0.00;0.00;;;34.10;1.00;;;;;;5045932;28;20208;-70
2022/06/19 10:47:01;;;;;;;0.00;0.00;;;34.40;1.00;;;;;;5047246;28;20203;-69
2022/06/19 10:49:36;;;;;;;0.00;0.00;;;34.40;1.00;;;;;;5046034;28;20205;-69
2022/06/19 10:52:12;;;;;;;0.00;0.00;;;34.40;1.00;;;;;;5046349;28;20248;-70
2022/06/19 10:54:59;;;;;;;0.00;0.00;;;34.20;1.00;;;;;;5043559;28;20435;-69
2022/06/19 10:57:40;;;;;;;0.00;0.00;;;34.30;1.00;;;;;;5047716;28;20238;-69
2022/06/19 11:00:09;;;;;;;0.00;0.00;;;34.60;1.00;;;;;;5043292;28;20669;-69
2022/06/19 11:05:35;;;;;;;0.00;0.00;;;34.60;1.00;;;;;;5047465;28;20205;-69
2022/06/19 11:08:03;;;;;;;0.00;0.00;;;34.70;1.00;;;;;;5046012;28;20210;-69
2022/06/19 11:10:40;;;;;;;0.00;0.00;;;35.00;1.00;;;;;;5045573;28;20202;-69
2022/06/19 11:13:09;;;;;;;0.00;0.00;;;35.20;1.00;;;;;;5048659;28;20221;-70
2022/06/19 11:15:40;;;;;;;0.00;0.00;;;35.20;1.00;;;;;;5048263;28;20240;-69
2022/06/19 11:18:15;;;;;;;0.00;0.00;;;35.30;1.00;;;;;;5046400;28;20313;-68
2022/06/19 11:20:56;;;;;;;0.00;0.00;;;35.50;1.00;;;;;;5047977;28;20213;-68
2022/06/19 11:23:30;;;;;;;0.00;0.00;;;35.60;1.00;;;;;;5044849;28;20198;-68
2022/06/19 11:26:05;;;;;;;0.00;0.00;;;35.50;1.00;;;;;;5046285;28;20673;-69
2022/06/19 11:28:48;;;;;;;0.00;0.00;;;35.50;1.00;;;;;;5045742;28;20233;-68
2022/06/19 11:31:21;;;;;;;0.00;0.00;;;35.60;1.00;;;;;;5045514;28;20202;-68
2022/06/19 11:33:54;;;;;;;0.00;0.00;;;35.70;1.00;;;;;;5045525;28;20204;-68
2022/06/19 11:36:32;;;;;;;0.00;0.00;;;35.80;1.00;;;;;;5045299;28;20268;-69
2022/06/19 11:39:03;;;;;;;0.00;0.00;;;35.90;1.00;;;;;;5046949;28;20201;-69
2022/06/19 11:41:36;;;;;;;0.00;0.00;;;35.90;1.00;;;;;;5048586;28;20669;-70
2022/06/19 11:44:18;;;;;;;0.00;0.00;;;35.90;1.00;;;;;;5046035;28;20285;-68
2022/06/19 11:46:50;;;;;;;0.00;0.00;;;36.00;1.00;;;;;;5046546;28;20200;-69
2022/06/19 11:49:29;;;;;;;0.00;0.00;;;36.00;1.00;;;;;;5046510;28;20238;-69
2022/06/19 11:52:06;;;;;;;0.00;0.00;;;35.80;1.00;;;;;;5047450;28;20198;-70
2022/06/19 11:54:41;;;;;;;0.00;0.00;;;35.70;1.00;;;;;;5049075;28;20202;-69
2022/06/19 11:57:23;;;;;;;0.00;0.00;;;35.70;1.00;;;;;;5047432;28;20270;-69
2022/06/19 12:00:02;;;;;;;0.00;0.00;;;35.70;1.00;;;;;;5046828;28;20685;-69
2022/06/19 12:02:35;;;;;;;0.00;0.00;;;35.90;1.00;;;;;;5048680;28;20210;-70
2022/06/19 12:05:23;;;;;;;0.00;0.00;;;36.10;1.00;;;;;;5048425;28;20194;-71
2022/06/19 12:07:58;;;;;;;0.00;0.00;;;36.30;1.00;;;;;;5048041;28;20304;-70
2022/06/19 12:10:34;;;;;;;0.00;0.00;;;36.00;1.00;;;;;;5048797;28;20209;-70
2022/06/19 12:13:05;;;;;;;0.00;0.00;;;36.00;1.00;;;;;;5049692;28;20209;-70
2022/06/19 12:15:52;;;;;;;0.00;0.00;;;35.90;1.00;;;;;;5049209;28;20213;-70
2022/06/19 12:18:28;;;;;;;0.00;0.00;;;35.90;1.00;;;;;;5049987;28;20229;-70
2022/06/19 12:21:01;;;;;;;0.00;0.00;;;36.00;1.00;;;;;;5047312;28;20205;-70
2022/06/19 12:23:37;;;;;;;0.00;0.00;;;36.10;1.00;;;;;;5053183;28;20205;-70
2022/06/19 12:26:10;;;;;;;0.00;0.00;;;36.10;1.00;;;;;;5051836;28;20190;-70
2022/06/19 12:28:46;;;;;;;0.00;0.00;;;36.00;1.00;;;;;;5052522;28;20218;-70
2022/06/19 12:31:18;;;;;;;0.00;0.00;;;35.70;1.00;;;;;;5051556;28;20194;-70
2022/06/19 12:33:50;;;;;;;0.00;0.00;;;35.90;1.00;;;;;;5053975;28;20219;-68
2022/06/19 12:36:21;;;;;;;0.00;0.00;;;35.60;1.00;;;;;;5050415;28;20210;-70
2022/06/19 12:38:51;;;;;;;0.00;0.00;;;35.90;1.00;;;;;;5048783;28;20290;-71
2022/06/19 12:41:37;;;;;;;0.00;0.00;;;36.00;1.00;;;;;;5051631;28;20206;-70
2022/06/19 12:44:15;;;;;;;0.00;0.00;;;35.90;1.00;;;;;;5051346;28;20202;-70
2022/06/19 12:46:52;;;;;;;0.00;0.00;;;35.80;1.00;;;;;;5050350;28;20201;-70
2022/06/19 12:49:32;;;;;;;0.00;0.00;;;35.60;1.00;;;;;;5049945;28;20197;-70
2022/06/19 12:52:10;;;;;;;0.00;0.00;;;35.40;1.00;;;;;;5049795;28;20206;-70
2022/06/19 12:55:01;;;;;;;0.00;0.00;;;35.30;1.00;;;;;;5051625;28;20209;-70
2022/06/19 12:57:52;;;;;;;0.00;0.00;;;35.40;1.00;;;;;;5048944;28;20242;-69
2022/06/19 13:00:29;;;;;;;0.00;0.00;;;35.70;1.00;;;;;;5045635;28;20205;-69
2022/06/19 13:03:19;;;;;;;0.00;0.00;;;35.60;1.00;;;;;;5046043;28;20252;-69
2022/06/19 13:05:55;;;;;;;0.00;0.00;;;35.50;1.00;;;;;;5046034;28;20243;-69
2022/06/19 13:08:31;;;;;;;0.00;0.00;;;35.40;1.00;;;;;;5044272;28;20660;-69
2022/06/19 13:11:09;;;;;;;0.00;0.00;;;35.50;1.00;;;;;;5044613;28;20722;-69
2022/06/19 13:14:21;;;;;;;0.00;0.00;;;35.30;1.00;;;;;;5044621;28;20212;-69
2022/06/19 13:17:01;;;;;;;0.00;0.00;;;35.20;1.00;;;;;;5043722;28;20631;-66
2022/06/19 13:19:40;;;;;;;0.00;0.00;;;35.20;1.00;;;;;;5043363;28;20222;-69
2022/06/19 13:22:20;;;;;;;0.00;0.00;;;35.50;1.00;;;;;;5043893;28;20213;-69
2022/06/19 13:24:58;;;;;;;0.00;0.00;;;35.60;1.00;;;;;;5045567;28;20251;-66
2022/06/19 13:27:41;;;;;;;0.00;0.00;;;35.50;1.00;;;;;;5042928;28;20626;-67
2022/06/19 13:30:31;;;;;;;0.00;0.00;;;35.50;1.00;;;;;;5046124;28;20260;-67